createdAt,value
2018-12-06T00:00:33.352Z,14.80
2018-12-06T00:01:33.284Z,14.80
2018-12-06T00:02:33.216Z,13.90
2018-12-06T00:03:33.154Z,14.50
2018-12-06T00:04:33.087Z,14.30
2018-12-06T00:05:33.020Z,14.60
2018-12-06T00:06:32.955Z,14.50
2018-12-06T00:07:32.891Z,14.40
2018-12-06T00:08:32.824Z,14.10
2018-12-06T00:09:32.757Z,14.60
2018-12-06T00:10:32.692Z,15.00
2018-12-06T00:11:32.625Z,15.30
2018-12-06T00:12:32.559Z,14.80
2018-12-06T00:13:32.495Z,14.50
2018-12-06T00:14:32.429Z,14.50
2018-12-06T00:15:32.364Z,15.60
2018-12-06T00:16:32.298Z,13.70
2018-12-06T00:17:32.231Z,14.80
2018-12-06T00:18:32.166Z,15.10
2018-12-06T00:19:32.100Z,14.40
2018-12-06T00:20:32.036Z,14.80
2018-12-06T00:21:31.969Z,15.80
2018-12-06T00:22:31.901Z,14.50
2018-12-06T00:23:31.838Z,15.10
2018-12-06T00:24:31.770Z,14.60
2018-12-06T00:25:31.706Z,14.40
2018-12-06T00:26:31.642Z,14.10
2018-12-06T00:27:31.572Z,14.70
2018-12-06T00:28:31.510Z,14.10
2018-12-06T00:29:31.441Z,14.50
2018-12-06T00:30:31.374Z,14.20
2018-12-06T00:31:31.308Z,14.50
2018-12-06T00:32:31.243Z,14.00
2018-12-06T00:33:31.178Z,14.20
2018-12-06T00:34:31.110Z,14.50
2018-12-06T00:35:31.047Z,14.10
2018-12-06T00:36:30.980Z,14.80
2018-12-06T00:37:30.913Z,14.20
2018-12-06T00:38:30.848Z,15.10
2018-12-06T00:39:30.781Z,14.30
2018-12-06T00:40:30.717Z,14.40
2018-12-06T00:41:30.651Z,13.50
2018-12-06T00:42:30.584Z,14.70
2018-12-06T00:43:30.519Z,13.90
2018-12-06T00:44:30.458Z,14.60
2018-12-06T00:45:30.388Z,14.20
2018-12-06T00:46:30.321Z,14.90
2018-12-06T00:47:30.257Z,14.50
2018-12-06T00:48:30.188Z,13.80
2018-12-06T00:49:30.127Z,13.60
2018-12-06T00:50:30.058Z,13.90
2018-12-06T00:51:29.992Z,14.00
2018-12-06T00:52:29.928Z,14.60
2018-12-06T00:53:29.858Z,13.30
2018-12-06T00:54:29.793Z,14.60
2018-12-06T00:55:29.726Z,13.70
2018-12-06T00:56:29.661Z,14.20
2018-12-06T00:57:29.603Z,14.30
2018-12-06T00:58:29.530Z,13.70
2018-12-06T00:59:29.464Z,14.20
2018-12-06T01:00:29.397Z,15.00
2018-12-06T01:01:29.330Z,13.50
2018-12-06T01:02:29.265Z,13.40
2018-12-06T01:03:29.200Z,14.20
2018-12-06T01:04:29.138Z,13.20
2018-12-06T01:05:29.071Z,13.70
2018-12-06T01:06:29.008Z,13.90
2018-12-06T01:07:28.940Z,14.60
2018-12-06T01:08:28.871Z,13.90
2018-12-06T01:09:28.806Z,13.50
2018-12-06T01:10:28.739Z,13.40
2018-12-06T01:11:28.674Z,13.60
2018-12-06T01:12:28.610Z,14.00
2018-12-06T01:13:28.546Z,13.90
2018-12-06T01:14:28.479Z,13.70
2018-12-06T01:15:28.416Z,14.10
2018-12-06T01:16:28.345Z,14.00
2018-12-06T01:17:28.279Z,13.80
2018-12-06T01:18:28.214Z,14.30
2018-12-06T01:19:28.149Z,13.70
2018-12-06T01:20:28.082Z,14.30
2018-12-06T01:21:28.017Z,14.60
2018-12-06T01:22:27.951Z,14.00
2018-12-06T01:23:27.884Z,13.30
2018-12-06T01:24:27.829Z,13.30
2018-12-06T01:25:27.754Z,13.90
2018-12-06T01:26:27.687Z,13.30
2018-12-06T01:27:27.622Z,13.70
2018-12-06T01:28:27.554Z,14.10
2018-12-06T01:29:27.492Z,14.00
2018-12-06T01:30:27.424Z,14.00
2018-12-06T01:31:27.360Z,14.30
2018-12-06T01:32:27.293Z,14.40
2018-12-06T01:33:27.232Z,14.40
2018-12-06T01:34:27.161Z,15.80
2018-12-06T01:35:27.095Z,16.80
2018-12-06T01:36:27.033Z,17.50
2018-12-06T01:37:26.972Z,18.70
2018-12-06T01:38:26.906Z,19.00
2018-12-06T01:39:26.833Z,18.00
2018-12-06T01:40:26.768Z,17.30
2018-12-06T01:41:26.701Z,17.80
2018-12-06T01:42:26.635Z,17.40
2018-12-06T01:43:26.570Z,16.30
2018-12-06T01:44:26.504Z,15.60
2018-12-06T01:45:26.444Z,15.50
2018-12-06T01:46:26.372Z,14.60
2018-12-06T01:47:26.308Z,15.00
2018-12-06T01:48:26.240Z,14.70
2018-12-06T01:49:26.177Z,15.30
2018-12-06T01:50:26.110Z,16.00
2018-12-06T01:51:26.044Z,15.80
2018-12-06T01:52:25.982Z,15.60
2018-12-06T01:53:25.933Z,14.90
2018-12-06T01:54:25.845Z,16.20
2018-12-06T01:55:25.787Z,15.40
2018-12-06T01:56:25.715Z,14.70
2018-12-06T01:57:25.651Z,15.10
2018-12-06T01:58:25.585Z,15.20
2018-12-06T01:59:25.519Z,15.50
2018-12-06T02:00:25.453Z,13.90
2018-12-06T02:01:25.389Z,15.10
2018-12-06T02:02:25.322Z,15.20
2018-12-06T02:03:25.254Z,15.50
2018-12-06T02:04:25.190Z,14.90
2018-12-06T02:05:25.125Z,15.30
2018-12-06T02:06:25.063Z,15.10
2018-12-06T02:07:24.992Z,15.90
2018-12-06T02:08:24.928Z,15.80
2018-12-06T02:09:24.861Z,15.10
2018-12-06T02:10:24.793Z,16.10
2018-12-06T02:11:24.729Z,15.60
2018-12-06T02:12:24.662Z,14.90
2018-12-06T02:13:24.608Z,15.40
2018-12-06T02:14:24.531Z,15.50
2018-12-06T02:15:24.467Z,16.00
2018-12-06T02:16:24.403Z,15.00
2018-12-06T02:17:24.335Z,15.40
2018-12-06T02:18:24.269Z,15.60
2018-12-06T02:19:24.203Z,15.30
2018-12-06T02:20:24.139Z,15.70
2018-12-06T02:21:24.072Z,15.20
2018-12-06T02:22:24.004Z,15.00
2018-12-06T02:23:23.939Z,15.70
2018-12-06T02:24:23.873Z,15.60
2018-12-06T02:25:23.809Z,15.60
2018-12-06T02:26:23.741Z,15.80
2018-12-06T02:27:23.675Z,16.50
2018-12-06T02:28:23.609Z,16.10
2018-12-06T02:29:23.544Z,15.40
2018-12-06T02:30:23.483Z,16.00
2018-12-06T02:31:23.413Z,16.10
2018-12-06T02:32:23.348Z,15.40
2018-12-06T02:33:23.283Z,16.90
2018-12-06T02:34:23.216Z,16.00
2018-12-06T02:35:23.146Z,17.00
2018-12-06T02:36:23.085Z,16.80
2018-12-06T02:37:23.018Z,15.90
2018-12-06T02:38:22.949Z,17.20
2018-12-06T02:39:22.886Z,16.00
2018-12-06T02:40:22.819Z,17.20
2018-12-06T02:41:22.754Z,17.60
2018-12-06T02:42:22.685Z,16.70
2018-12-06T02:43:22.620Z,16.30
2018-12-06T02:44:22.563Z,16.80
2018-12-06T02:45:22.488Z,16.50
2018-12-06T02:46:22.425Z,16.00
2018-12-06T02:47:22.356Z,16.40
2018-12-06T02:48:22.288Z,15.90
2018-12-06T02:49:22.245Z,16.80
2018-12-06T02:50:22.157Z,16.70
2018-12-06T02:51:22.092Z,16.10
2018-12-06T02:52:22.025Z,16.20
2018-12-06T02:53:21.959Z,16.60
2018-12-06T02:54:21.998Z,14.40
2018-12-06T02:55:21.827Z,15.90
2018-12-06T02:56:21.760Z,14.80
2018-12-06T02:57:21.696Z,15.80
2018-12-06T02:58:21.628Z,14.80
2018-12-06T02:59:21.605Z,16.10
2018-12-06T03:00:21.497Z,17.00
2018-12-06T03:01:21.433Z,16.00
2018-12-06T03:02:21.366Z,16.00
2018-12-06T03:03:21.298Z,15.90
2018-12-06T03:04:21.232Z,16.00
2018-12-06T03:05:21.168Z,16.70
2018-12-06T03:06:21.100Z,14.90
2018-12-06T03:07:21.035Z,16.10
2018-12-06T03:08:20.969Z,16.40
2018-12-06T03:09:20.904Z,16.80
2018-12-06T03:10:20.836Z,16.60
2018-12-06T03:11:20.774Z,16.50
2018-12-06T03:12:20.703Z,16.50
2018-12-06T03:13:20.638Z,15.80
2018-12-06T03:14:20.572Z,15.70
2018-12-06T03:15:20.507Z,17.00
2018-12-06T03:16:20.440Z,16.50
2018-12-06T03:17:20.375Z,16.40
2018-12-06T03:18:20.309Z,15.90
2018-12-06T03:19:20.241Z,15.20
2018-12-06T03:20:20.181Z,15.50
2018-12-06T03:21:20.112Z,15.30
2018-12-06T03:22:20.045Z,15.50
2018-12-06T03:23:19.979Z,15.40
2018-12-06T03:24:19.912Z,16.20
2018-12-06T03:25:19.847Z,16.40
2018-12-06T03:26:19.780Z,16.30
2018-12-06T03:27:19.717Z,16.00
2018-12-06T03:28:19.649Z,16.00
2018-12-06T03:29:19.584Z,15.60
2018-12-06T03:30:19.519Z,15.40
2018-12-06T03:31:19.453Z,16.10
2018-12-06T03:32:19.387Z,16.10
2018-12-06T03:33:19.326Z,15.30
2018-12-06T03:34:19.253Z,16.60
2018-12-06T03:35:19.188Z,15.20
2018-12-06T03:36:19.122Z,16.00
2018-12-06T03:37:19.070Z,15.40
2018-12-06T03:38:18.988Z,15.70
2018-12-06T03:39:18.924Z,15.40
2018-12-06T03:40:18.859Z,15.20
2018-12-06T03:41:18.792Z,14.80
2018-12-06T03:42:18.726Z,15.40
2018-12-06T03:43:18.662Z,14.60
2018-12-06T03:44:18.594Z,14.70
2018-12-06T03:45:18.528Z,14.50
2018-12-06T03:46:18.463Z,15.10
2018-12-06T03:47:18.397Z,15.30
2018-12-06T03:48:18.330Z,14.80
2018-12-06T03:49:18.323Z,14.90
2018-12-06T03:50:18.199Z,14.20
2018-12-06T03:51:18.131Z,14.00
2018-12-06T03:52:18.066Z,14.00
2018-12-06T03:53:18.001Z,14.30
2018-12-06T03:54:17.934Z,14.60
2018-12-06T03:55:17.870Z,14.30
2018-12-06T03:56:17.802Z,14.00
2018-12-06T03:57:17.737Z,14.70
2018-12-06T03:58:17.672Z,13.70
2018-12-06T03:59:17.604Z,14.30
2018-12-06T04:00:17.538Z,13.70
2018-12-06T04:01:17.475Z,13.80
2018-12-06T04:02:17.408Z,14.00
2018-12-06T04:03:17.341Z,14.20
2018-12-06T04:04:17.274Z,14.30
2018-12-06T04:05:17.209Z,13.60
2018-12-06T04:06:17.142Z,14.20
2018-12-06T04:07:17.077Z,14.50
2018-12-06T04:08:17.011Z,14.20
2018-12-06T04:09:16.948Z,14.20
2018-12-06T04:10:16.880Z,14.00
2018-12-06T04:11:16.813Z,13.80
2018-12-06T04:12:16.835Z,14.10
2018-12-06T04:13:16.682Z,14.70
2018-12-06T04:14:16.615Z,15.40
2018-12-06T04:15:16.558Z,14.30
2018-12-06T04:16:16.487Z,13.50
2018-12-06T04:17:16.420Z,13.30
2018-12-06T04:18:16.352Z,14.20
2018-12-06T04:19:16.285Z,14.80
2018-12-06T04:20:16.223Z,13.80
2018-12-06T04:21:16.155Z,15.00
2018-12-06T04:22:16.087Z,14.10
2018-12-06T04:23:16.023Z,14.30
2018-12-06T04:24:15.966Z,14.40
2018-12-06T04:25:15.890Z,13.90
2018-12-06T04:26:15.836Z,14.20
2018-12-06T04:27:15.758Z,12.80
2018-12-06T04:28:15.694Z,14.40
2018-12-06T04:29:15.627Z,14.30
2018-12-06T04:30:15.558Z,14.30
2018-12-06T04:31:15.495Z,14.20
2018-12-06T04:32:15.429Z,13.70
2018-12-06T04:33:15.366Z,14.80
2018-12-06T04:34:15.296Z,14.30
2018-12-06T04:35:15.232Z,13.20
2018-12-06T04:36:15.165Z,13.20
2018-12-06T04:37:15.101Z,13.70
2018-12-06T04:38:15.033Z,13.20
2018-12-06T04:39:14.967Z,13.60
2018-12-06T04:40:14.903Z,13.60
2018-12-06T04:41:14.836Z,13.70
2018-12-06T04:42:14.769Z,14.50
2018-12-06T04:43:14.706Z,13.40
2018-12-06T04:44:14.639Z,13.70
2018-12-06T04:45:14.572Z,13.30
2018-12-06T04:46:14.509Z,13.10
2018-12-06T04:47:14.443Z,13.50
2018-12-06T04:48:21.661Z,14.10
2018-12-06T04:49:14.310Z,13.90
2018-12-06T04:50:14.292Z,14.10
2018-12-06T04:51:14.178Z,13.70
2018-12-06T04:52:14.113Z,14.00
2018-12-06T04:53:14.048Z,13.40
2018-12-06T04:54:13.981Z,13.50
2018-12-06T04:55:13.915Z,14.30
2018-12-06T04:56:13.851Z,13.40
2018-12-06T04:57:13.788Z,13.40
2018-12-06T04:58:13.719Z,13.30
2018-12-06T04:59:13.652Z,13.40
2018-12-06T05:00:13.587Z,13.00
2018-12-06T05:01:13.522Z,13.30
2018-12-06T05:02:13.455Z,13.30
2018-12-06T05:03:13.386Z,12.70
2018-12-06T05:04:13.326Z,13.50
2018-12-06T05:05:13.257Z,13.30
2018-12-06T05:06:13.191Z,13.20
2018-12-06T05:07:13.125Z,13.20
2018-12-06T05:08:13.061Z,13.00
2018-12-06T05:09:12.996Z,12.20
2018-12-06T05:10:12.928Z,13.10
2018-12-06T05:11:12.865Z,13.80
2018-12-06T05:12:12.797Z,13.20
2018-12-06T05:13:12.733Z,12.90
2018-12-06T05:14:12.667Z,13.60
2018-12-06T05:15:12.600Z,13.30
2018-12-06T05:16:12.533Z,12.90
2018-12-06T05:17:12.472Z,13.30
2018-12-06T05:18:12.409Z,14.70
2018-12-06T05:19:12.336Z,13.90
2018-12-06T05:20:12.270Z,13.50
2018-12-06T05:21:12.206Z,13.60
2018-12-06T05:22:12.139Z,13.70
2018-12-06T05:23:12.075Z,13.90
2018-12-06T05:24:12.010Z,13.70
2018-12-06T05:25:11.942Z,14.10
2018-12-06T05:26:11.874Z,14.20
2018-12-06T05:27:11.810Z,13.30
2018-12-06T05:28:11.746Z,13.50
2018-12-06T05:29:11.681Z,13.70
2018-12-06T05:30:11.614Z,13.40
2018-12-06T05:31:11.547Z,13.40
2018-12-06T05:32:11.482Z,13.50
2018-12-06T05:33:11.418Z,12.50
2018-12-06T05:34:11.351Z,13.00
2018-12-06T05:35:11.285Z,14.20
2018-12-06T05:36:11.220Z,13.50
2018-12-06T05:37:11.153Z,12.90
2018-12-06T05:38:11.088Z,13.20
2018-12-06T05:39:11.023Z,12.90
2018-12-06T05:40:10.956Z,13.50
2018-12-06T05:41:10.892Z,12.90
2018-12-06T05:42:10.823Z,13.60
2018-12-06T05:43:10.758Z,13.70
2018-12-06T05:44:10.693Z,13.70
2018-12-06T05:45:10.627Z,13.20
2018-12-06T05:46:10.559Z,12.30
2018-12-06T05:47:10.496Z,13.40
2018-12-06T05:48:10.431Z,13.60
2018-12-06T05:49:10.364Z,13.70
2018-12-06T05:50:10.297Z,12.80
2018-12-06T05:51:10.232Z,13.60
2018-12-06T05:52:10.168Z,12.40
2018-12-06T05:53:10.100Z,13.20
2018-12-06T05:54:10.037Z,13.60
2018-12-06T05:55:09.969Z,13.20
2018-12-06T05:56:09.905Z,13.50
2018-12-06T05:57:09.839Z,13.50
2018-12-06T05:58:09.773Z,13.60
2018-12-06T05:59:09.712Z,13.70
2018-12-06T06:00:09.661Z,14.00
2018-12-06T06:01:09.575Z,13.60
2018-12-06T06:02:09.510Z,13.60
2018-12-06T06:03:09.444Z,14.30
2018-12-06T06:04:09.381Z,14.50
2018-12-06T06:05:09.312Z,13.40
2018-12-06T06:06:09.246Z,13.50
2018-12-06T06:07:09.189Z,13.30
2018-12-06T06:08:09.111Z,14.00
2018-12-06T06:09:09.048Z,13.90
2018-12-06T06:10:08.982Z,14.40
2018-12-06T06:11:08.917Z,13.80
2018-12-06T06:12:08.855Z,14.60
2018-12-06T06:13:08.786Z,14.30
2018-12-06T06:14:08.723Z,14.40
2018-12-06T06:15:08.653Z,14.10
2018-12-06T06:16:08.589Z,14.10
2018-12-06T06:17:08.524Z,13.70
2018-12-06T06:18:08.456Z,13.40
2018-12-06T06:19:08.392Z,13.40
2018-12-06T06:20:08.331Z,13.60
2018-12-06T06:21:08.260Z,13.40
2018-12-06T06:22:08.192Z,13.10
2018-12-06T06:23:08.128Z,13.10
2018-12-06T06:24:08.067Z,13.70
2018-12-06T06:25:07.998Z,13.50
2018-12-06T06:26:07.931Z,13.00
2018-12-06T06:27:07.864Z,13.80
2018-12-06T06:28:07.801Z,14.50
2018-12-06T06:29:07.736Z,14.20
2018-12-06T06:30:07.665Z,14.00
2018-12-06T06:31:07.600Z,14.20
2018-12-06T06:32:07.537Z,13.20
2018-12-06T06:33:08.786Z,13.40
2018-12-06T06:34:07.401Z,13.80
2018-12-06T06:35:07.336Z,13.70
2018-12-06T06:36:07.271Z,13.90
2018-12-06T06:37:07.220Z,13.90
2018-12-06T06:38:07.138Z,13.60
2018-12-06T06:39:07.120Z,13.40
2018-12-06T06:40:07.004Z,13.10
2018-12-06T06:41:06.943Z,13.30
2018-12-06T06:42:06.874Z,13.50
2018-12-06T06:43:06.809Z,13.50
2018-12-06T06:44:06.748Z,12.90
2018-12-06T06:45:06.682Z,13.80
2018-12-06T06:46:06.611Z,13.70
2018-12-06T06:47:06.545Z,16.00
2018-12-06T06:48:06.479Z,15.10
2018-12-06T06:49:13.529Z,17.10
2018-12-06T06:50:06.348Z,15.80
2018-12-06T06:51:06.280Z,14.80
2018-12-06T06:52:06.218Z,15.30
2018-12-06T06:53:06.150Z,14.10
2018-12-06T06:54:06.091Z,14.30
2018-12-06T06:55:06.019Z,14.60
2018-12-06T06:56:05.951Z,14.80
2018-12-06T06:57:05.887Z,15.00
2018-12-06T06:58:05.821Z,15.20
2018-12-06T06:59:05.756Z,15.90
2018-12-06T07:00:05.726Z,15.50
2018-12-06T07:01:05.624Z,15.80
2018-12-06T07:02:05.558Z,15.30
2018-12-06T07:03:05.491Z,15.30
2018-12-06T07:04:05.427Z,15.20
2018-12-06T07:05:05.362Z,15.50
2018-12-06T07:06:05.293Z,15.30
2018-12-06T07:07:05.252Z,16.30
2018-12-06T07:08:05.163Z,14.60
2018-12-06T07:09:05.098Z,16.10
2018-12-06T07:10:05.034Z,14.40
2018-12-06T07:11:04.970Z,15.00
2018-12-06T07:12:04.901Z,15.10
2018-12-06T07:13:04.838Z,15.40
2018-12-06T07:14:04.768Z,15.70
2018-12-06T07:15:04.704Z,15.30
2018-12-06T07:16:04.641Z,15.20
2018-12-06T07:17:04.573Z,15.20
2018-12-06T07:18:04.508Z,15.40
2018-12-06T07:19:04.440Z,14.70
2018-12-06T07:20:04.376Z,15.40
2018-12-06T07:21:04.311Z,14.40
2018-12-06T07:22:04.243Z,14.80
2018-12-06T07:23:04.180Z,13.90
2018-12-06T07:24:04.113Z,14.20
2018-12-06T07:25:04.048Z,13.60
2018-12-06T07:26:03.982Z,13.00
2018-12-06T07:27:03.923Z,13.30
2018-12-06T07:28:03.852Z,13.00
2018-12-06T07:29:03.787Z,12.40
2018-12-06T07:30:03.721Z,11.90
2018-12-06T07:31:03.655Z,11.40
2018-12-06T07:32:03.590Z,11.80
2018-12-06T07:33:03.524Z,11.50
2018-12-06T07:34:03.461Z,10.90
2018-12-06T07:35:03.393Z,11.00
2018-12-06T07:36:03.332Z,11.10
2018-12-06T07:37:03.265Z,10.90
2018-12-06T07:38:03.201Z,11.00
2018-12-06T07:39:03.133Z,10.80
2018-12-06T07:40:03.071Z,11.40
2018-12-06T07:41:03.004Z,11.30
2018-12-06T07:42:02.935Z,11.40
2018-12-06T07:43:02.874Z,11.30
2018-12-06T07:44:02.806Z,11.10
2018-12-06T07:45:02.739Z,10.90
2018-12-06T07:46:02.670Z,11.10
2018-12-06T07:47:02.611Z,11.60
2018-12-06T07:48:02.544Z,11.10
2018-12-06T07:49:02.480Z,10.80
2018-12-06T07:50:02.417Z,11.20
2018-12-06T07:51:02.349Z,10.90
2018-12-06T07:52:02.284Z,12.50
2018-12-06T07:53:02.218Z,36.30
2018-12-06T07:54:02.154Z,55.80
2018-12-06T07:55:02.090Z,53.60
2018-12-06T07:56:02.024Z,69.60
2018-12-06T07:57:01.958Z,54.90
2018-12-06T07:58:01.890Z,61.90
2018-12-06T07:59:01.826Z,94.60
2018-12-06T08:00:01.763Z,51.00
2018-12-06T08:01:01.699Z,18.00
2018-12-06T08:02:01.633Z,16.70
2018-12-06T08:03:01.567Z,14.20
2018-12-06T08:04:01.506Z,13.40
2018-12-06T08:05:01.436Z,13.40
2018-12-06T08:06:01.370Z,12.80
2018-12-06T08:07:01.306Z,11.80
2018-12-06T08:08:01.242Z,11.60
2018-12-06T08:09:01.177Z,12.50
2018-12-06T08:10:01.110Z,11.40
2018-12-06T08:11:01.048Z,12.10
2018-12-06T08:12:00.983Z,11.90
2018-12-06T08:13:00.915Z,11.40
2018-12-06T08:14:00.850Z,11.20
2018-12-06T08:15:00.788Z,11.00
2018-12-06T08:16:00.721Z,11.20
2018-12-06T08:17:00.656Z,11.20
2018-12-06T08:18:00.590Z,11.10
2018-12-06T08:19:00.527Z,11.20
2018-12-06T08:20:00.459Z,11.70
2018-12-06T08:21:00.451Z,10.60
2018-12-06T08:22:00.331Z,11.20
2018-12-06T08:23:00.265Z,10.90
2018-12-06T08:24:00.202Z,10.60
2018-12-06T08:25:00.138Z,10.90
2018-12-06T08:26:00.076Z,11.10
2018-12-06T08:27:00.007Z,12.00
2018-12-06T08:27:59.941Z,11.00
2018-12-06T08:28:59.875Z,11.00
2018-12-06T08:29:59.809Z,10.60
2018-12-06T08:30:59.746Z,10.90
2018-12-06T08:31:59.680Z,11.50
2018-12-06T08:32:59.614Z,10.60
2018-12-06T08:34:05.909Z,10.70
2018-12-06T08:34:59.485Z,11.20
2018-12-06T08:35:59.419Z,11.10
2018-12-06T08:36:59.355Z,10.90
2018-12-06T08:37:59.290Z,10.90
2018-12-06T08:38:59.225Z,11.60
2018-12-06T08:39:59.162Z,11.70
2018-12-06T08:40:59.101Z,11.50
2018-12-06T08:41:59.041Z,12.10
2018-12-06T08:42:58.963Z,12.00
2018-12-06T08:43:58.901Z,11.30
2018-12-06T08:44:58.836Z,12.20
2018-12-06T08:45:58.772Z,11.60
2018-12-06T08:46:58.705Z,11.90
2018-12-06T08:47:58.641Z,11.10
2018-12-06T08:49:03.001Z,12.00
2018-12-06T08:49:58.510Z,11.30
2018-12-06T08:50:58.447Z,12.00
2018-12-06T08:51:58.380Z,11.40
2018-12-06T08:52:58.317Z,11.40
2018-12-06T08:53:58.250Z,12.30
2018-12-06T08:54:58.185Z,12.20
2018-12-06T08:55:58.120Z,12.30
2018-12-06T08:56:58.055Z,11.80
2018-12-06T08:57:57.993Z,11.80
2018-12-06T08:58:57.926Z,13.00
2018-12-06T08:59:57.862Z,11.60
2018-12-06T09:00:57.797Z,11.80
2018-12-06T09:01:57.733Z,11.90
2018-12-06T09:02:57.665Z,14.90
2018-12-06T09:03:57.609Z,12.40
2018-12-06T09:04:57.540Z,11.60
2018-12-06T09:05:57.471Z,11.30
2018-12-06T09:06:57.407Z,11.70
2018-12-06T09:07:57.342Z,11.30
2018-12-06T09:08:57.278Z,12.00
2018-12-06T09:09:57.212Z,11.30
2018-12-06T09:10:57.146Z,11.90
2018-12-06T09:11:57.084Z,11.00
2018-12-06T09:12:57.018Z,11.00
2018-12-06T09:13:56.952Z,10.90
2018-12-06T09:14:56.886Z,11.10
2018-12-06T09:15:56.825Z,10.10
2018-12-06T09:16:56.760Z,9.40
2018-12-06T09:17:56.693Z,9.80
2018-12-06T09:18:56.628Z,9.40
2018-12-06T09:19:56.567Z,9.70
2018-12-06T09:20:56.499Z,9.60
2018-12-06T09:21:56.437Z,9.40
2018-12-06T09:22:56.372Z,9.10
2018-12-06T09:23:56.307Z,9.20
2018-12-06T09:24:56.243Z,9.40
2018-12-06T09:25:56.177Z,9.40
2018-12-06T09:26:58.900Z,8.90
2018-12-06T09:27:56.046Z,9.10
2018-12-06T09:28:56.085Z,9.00
2018-12-06T09:29:55.918Z,8.90
2018-12-06T09:31:00.971Z,9.60
2018-12-06T09:31:55.791Z,9.30
2018-12-06T09:32:55.724Z,9.00
2018-12-06T09:33:55.659Z,8.80
2018-12-06T09:34:55.595Z,8.60
2018-12-06T09:35:55.531Z,9.20
2018-12-06T09:36:55.466Z,8.20
2018-12-06T09:37:55.399Z,8.70
2018-12-06T09:38:55.338Z,8.60
2018-12-06T09:39:55.273Z,9.70
2018-12-06T09:40:55.211Z,9.10
2018-12-06T09:41:55.144Z,8.60
2018-12-06T09:42:55.092Z,9.10
2018-12-06T09:43:55.017Z,8.90
2018-12-06T09:44:54.949Z,8.40
2018-12-06T09:45:54.891Z,8.60
2018-12-06T09:46:54.822Z,9.00
2018-12-06T09:47:54.801Z,9.00
2018-12-06T09:48:54.704Z,9.40
2018-12-06T09:49:54.628Z,8.40
2018-12-06T09:50:54.620Z,8.60
2018-12-06T09:51:54.499Z,8.20
2018-12-06T09:52:54.434Z,9.10
2018-12-06T09:53:54.369Z,8.60
2018-12-06T09:54:54.305Z,8.90
2018-12-06T09:55:54.243Z,8.60
2018-12-06T09:56:54.176Z,8.70
2018-12-06T09:57:54.111Z,8.40
2018-12-06T09:58:54.047Z,8.50
2018-12-06T09:59:53.984Z,8.90
2018-12-06T10:00:53.921Z,8.90
2018-12-06T10:01:53.858Z,9.10
2018-12-06T10:02:53.788Z,8.40
2018-12-06T10:03:53.726Z,9.20
2018-12-06T10:04:53.662Z,8.90
2018-12-06T10:05:53.598Z,8.90
2018-12-06T10:06:53.551Z,9.50
2018-12-06T10:07:53.468Z,8.70
2018-12-06T10:08:53.407Z,8.90
2018-12-06T10:09:53.340Z,8.80
2018-12-06T10:10:53.272Z,9.20
2018-12-06T10:11:53.209Z,9.00
2018-12-06T10:12:53.147Z,8.80
2018-12-06T10:13:53.082Z,9.10
2018-12-06T10:14:53.018Z,8.80
2018-12-06T10:15:52.952Z,8.30
2018-12-06T10:16:52.892Z,8.80
2018-12-06T10:17:52.823Z,8.40
2018-12-06T10:18:52.759Z,8.50
2018-12-06T10:19:52.697Z,8.30
2018-12-06T10:20:52.634Z,8.50
2018-12-06T10:21:52.566Z,8.30
2018-12-06T10:22:52.502Z,8.90
2018-12-06T10:23:52.439Z,8.10
2018-12-06T10:24:52.376Z,8.60
2018-12-06T10:25:52.326Z,8.10
2018-12-06T10:26:52.247Z,8.00
2018-12-06T10:27:52.183Z,8.80
2018-12-06T10:28:52.123Z,8.10
2018-12-06T10:29:52.054Z,7.50
2018-12-06T10:30:51.991Z,7.60
2018-12-06T10:31:51.925Z,8.20
2018-12-06T10:32:51.863Z,71.10
2018-12-06T10:33:51.802Z,25.70
2018-12-06T10:34:53.568Z,48.20
2018-12-06T10:35:51.670Z,16.20
2018-12-06T10:36:51.605Z,8.10
2018-12-06T10:37:51.550Z,7.90
2018-12-06T10:38:51.477Z,8.00
2018-12-06T10:39:51.414Z,8.20
2018-12-06T10:40:51.349Z,7.60
2018-12-06T10:41:51.284Z,7.80
2018-12-06T10:42:51.221Z,8.10
2018-12-06T10:43:51.156Z,29.80
2018-12-06T10:44:51.095Z,41.90
2018-12-06T10:45:51.028Z,45.10
2018-12-06T10:46:50.965Z,13.70
2018-12-06T10:47:50.899Z,8.40
2018-12-06T10:48:50.837Z,7.90
2018-12-06T10:49:50.780Z,7.80
2018-12-06T10:50:50.710Z,11.10
2018-12-06T10:51:50.644Z,12.60
2018-12-06T10:52:50.586Z,9.40
2018-12-06T10:53:50.517Z,8.70
2018-12-06T10:54:50.454Z,8.20
2018-12-06T10:55:50.391Z,8.20
2018-12-06T10:56:50.326Z,7.60
2018-12-06T10:57:50.283Z,8.20
2018-12-06T10:58:50.196Z,8.00
2018-12-06T10:59:50.134Z,7.60
2018-12-06T11:00:57.043Z,8.50
2018-12-06T11:01:50.005Z,7.80
2018-12-06T11:02:49.944Z,7.80
2018-12-06T11:03:49.880Z,7.50
2018-12-06T11:04:49.827Z,7.90
2018-12-06T11:05:49.751Z,7.80
2018-12-06T11:06:49.688Z,7.10
2018-12-06T11:07:49.625Z,7.00
2018-12-06T11:08:49.566Z,7.80
2018-12-06T11:09:49.496Z,7.80
2018-12-06T11:10:49.433Z,7.30
2018-12-06T11:11:49.371Z,7.60
2018-12-06T11:12:49.307Z,7.90
2018-12-06T11:13:49.243Z,7.30
2018-12-06T11:14:49.180Z,7.50
2018-12-06T11:15:49.115Z,7.30
2018-12-06T11:16:49.055Z,7.40
2018-12-06T11:17:48.988Z,7.50
2018-12-06T11:18:48.924Z,7.60
2018-12-06T11:19:48.861Z,7.40
2018-12-06T11:20:48.799Z,7.90
2018-12-06T11:21:48.735Z,7.60
2018-12-06T11:22:48.670Z,7.80
2018-12-06T11:23:48.607Z,8.00
2018-12-06T11:24:48.544Z,8.30
2018-12-06T11:25:48.479Z,7.90
2018-12-06T11:26:48.417Z,7.70
2018-12-06T11:27:48.353Z,7.00
2018-12-06T11:28:48.289Z,7.80
2018-12-06T11:29:48.258Z,7.30
2018-12-06T11:30:48.167Z,8.10
2018-12-06T11:31:48.097Z,8.00
2018-12-06T11:32:48.032Z,8.80
2018-12-06T11:33:47.970Z,7.90
2018-12-06T11:34:47.909Z,7.90
2018-12-06T11:35:47.845Z,8.00
2018-12-06T11:36:47.781Z,7.80
2018-12-06T11:37:47.715Z,7.80
2018-12-06T11:38:47.656Z,7.80
2018-12-06T11:39:47.590Z,7.80
2018-12-06T11:40:47.527Z,7.40
2018-12-06T11:41:47.463Z,7.80
2018-12-06T11:42:47.399Z,7.20
2018-12-06T11:43:47.336Z,7.50
2018-12-06T11:44:47.274Z,7.80
2018-12-06T11:45:47.209Z,7.50
2018-12-06T11:46:47.146Z,7.10
2018-12-06T11:47:47.082Z,7.50
2018-12-06T11:48:47.025Z,8.30
2018-12-06T11:49:46.965Z,8.20
2018-12-06T11:50:46.892Z,8.10
2018-12-06T11:51:46.831Z,7.70
2018-12-06T11:52:46.767Z,7.20
2018-12-06T11:53:46.699Z,8.00
2018-12-06T11:54:46.642Z,7.70
2018-12-06T11:55:46.578Z,7.60
2018-12-06T11:56:46.515Z,7.90
2018-12-06T11:57:46.458Z,8.10
2018-12-06T11:58:46.386Z,7.70
2018-12-06T11:59:46.322Z,7.50
2018-12-06T12:00:46.259Z,7.40
2018-12-06T12:01:46.195Z,7.50
2018-12-06T12:02:46.133Z,7.90
2018-12-06T12:03:46.069Z,7.30
2018-12-06T12:04:46.007Z,7.20
2018-12-06T12:05:45.947Z,7.90
2018-12-06T12:06:45.878Z,8.00
2018-12-06T12:07:45.817Z,7.60
2018-12-06T12:08:45.753Z,7.20
2018-12-06T12:09:45.688Z,7.40
2018-12-06T12:10:45.627Z,7.10
2018-12-06T12:11:45.564Z,7.20
2018-12-06T12:12:45.501Z,7.90
2018-12-06T12:13:45.435Z,6.40
2018-12-06T12:14:45.372Z,7.50
2018-12-06T12:15:45.309Z,8.00
2018-12-06T12:16:45.290Z,7.60
2018-12-06T12:17:45.182Z,7.40
2018-12-06T12:18:45.120Z,6.70
2018-12-06T12:19:45.055Z,7.70
2018-12-06T12:20:44.993Z,8.00
2018-12-06T12:21:44.929Z,7.90
2018-12-06T12:22:44.866Z,7.40
2018-12-06T12:23:44.804Z,7.80
2018-12-06T12:24:44.742Z,7.70
2018-12-06T12:25:44.677Z,7.40
2018-12-06T12:26:44.616Z,6.60
2018-12-06T12:27:44.550Z,7.10
2018-12-06T12:28:44.487Z,7.10
2018-12-06T12:29:44.427Z,7.00
2018-12-06T12:30:44.361Z,6.70
2018-12-06T12:31:44.299Z,6.60
2018-12-06T12:32:44.235Z,6.70
2018-12-06T12:33:44.231Z,6.90
2018-12-06T12:34:44.109Z,7.70
2018-12-06T12:35:44.046Z,6.60
2018-12-06T12:36:43.980Z,6.70
2018-12-06T12:37:43.920Z,6.40
2018-12-06T12:38:43.855Z,6.50
2018-12-06T12:39:43.791Z,6.80
2018-12-06T12:40:43.730Z,7.00
2018-12-06T12:41:43.666Z,6.20
2018-12-06T12:42:43.602Z,6.50
2018-12-06T12:43:43.544Z,6.20
2018-12-06T12:44:43.478Z,6.40
2018-12-06T12:45:43.412Z,6.30
2018-12-06T12:46:43.350Z,6.50
2018-12-06T12:47:43.288Z,6.10
2018-12-06T12:48:43.224Z,6.50
2018-12-06T12:49:43.220Z,6.20
2018-12-06T12:50:43.096Z,6.10
2018-12-06T12:51:43.037Z,6.50
2018-12-06T12:52:42.974Z,6.30
2018-12-06T12:53:42.908Z,6.20
2018-12-06T12:54:42.847Z,6.30
2018-12-06T12:55:42.791Z,6.30
2018-12-06T12:56:42.721Z,6.20
2018-12-06T12:57:42.656Z,21.00
2018-12-06T12:58:42.593Z,14.80